Time;durP1;ratioP1;P1;durP2;ratioP2;P2;SDS_P1;SDS_P2;PMS_P1;PMS_P2;Temp;Humidity;BMP_temperature;BMP_pressure;BME280_temperature;BME280_humidity;BME280_pressure;Samples;Min_cycle;Max_cycle;Signal;HPM_P1;HPM_P2
2022/12/03 00:02:23;;;;;;;25.40;18.20;;;3.10;99.90;;;;;;4788848;29;20470;-80
2022/12/03 00:04:49;;;;;;;30.00;19.40;;;3.10;99.90;;;;;;4788640;29;20049;-80
2022/12/03 00:07:14;;;;;;;29.38;18.77;;;3.10;99.90;;;;;;4787484;29;20035;-80
2022/12/03 00:09:40;;;;;;;28.13;18.55;;;3.10;99.90;;;;;;4787071;29;20047;-81
2022/12/03 00:12:06;;;;;;;27.88;18.55;;;3.10;99.90;;;;;;4789109;29;20043;-80
2022/12/03 00:14:31;;;;;;;26.48;18.83;;;3.10;99.90;;;;;;4786221;29;20046;-80
2022/12/03 00:16:57;;;;;;;26.52;17.95;;;3.10;99.90;;;;;;4788277;29;20089;-80
2022/12/03 00:19:22;;;;;;;31.35;20.73;;;3.10;99.90;;;;;;4789497;29;20042;-80
2022/12/03 00:21:48;;;;;;;28.88;18.95;;;3.10;99.90;;;;;;4787050;29;20092;-80
2022/12/03 00:24:13;;;;;;;30.42;19.67;;;3.10;99.90;;;;;;4775571;29;20527;-80
2022/12/03 00:26:39;;;;;;;31.05;19.73;;;3.10;99.90;;;;;;4786329;29;20051;-80
2022/12/03 00:29:04;;;;;;;28.65;18.80;;;3.10;99.90;;;;;;4786860;29;20047;-80
2022/12/03 00:31:30;;;;;;;28.40;18.95;;;3.10;99.90;;;;;;4785636;29;20047;-80
2022/12/03 00:33:55;;;;;;;29.08;19.83;;;3.10;99.90;;;;;;4770545;29;20047;-80
2022/12/03 00:36:21;;;;;;;27.73;19.48;;;3.20;99.90;;;;;;4789398;29;20080;-80
2022/12/03 00:38:46;;;;;;;29.40;19.48;;;3.10;99.90;;;;;;4774046;29;20059;-80
2022/12/03 00:41:12;;;;;;;32.55;20.52;;;3.20;99.90;;;;;;4787581;29;20054;-80
2022/12/03 00:43:38;;;;;;;29.83;20.02;;;3.10;99.90;;;;;;4783459;29;20049;-80
2022/12/03 00:46:03;;;;;;;28.83;19.52;;;3.10;99.90;;;;;;4789881;29;20107;-80
2022/12/03 00:48:29;;;;;;;32.15;20.13;;;3.20;99.90;;;;;;4786874;29;20042;-80
2022/12/03 00:50:54;;;;;;;31.17;20.75;;;3.20;99.90;;;;;;4774846;29;20517;-80
2022/12/03 00:53:20;;;;;;;31.15;19.52;;;3.20;99.90;;;;;;4788376;29;20613;-80
2022/12/03 00:55:45;;;;;;;30.08;20.17;;;3.30;99.90;;;;;;4801825;29;20058;-81
2022/12/03 00:58:11;;;;;;;32.22;19.65;;;3.30;99.90;;;;;;4786419;29;20133;-80
2022/12/03 01:00:37;;;;;;;27.83;18.65;;;3.30;99.90;;;;;;4786075;29;20070;-80
2022/12/03 01:03:03;;;;;;;28.05;19.65;;;3.40;99.90;;;;;;4787773;29;21615;-80
2022/12/03 01:05:28;;;;;;;28.00;18.95;;;3.30;99.90;;;;;;4788063;29;20057;-81
2022/12/03 01:07:54;;;;;;;24.73;16.90;;;3.40;99.90;;;;;;4801960;29;20035;-80
2022/12/03 01:10:20;;;;;;;29.38;18.67;;;3.50;99.90;;;;;;4771312;29;20130;-80
2022/12/03 01:12:45;;;;;;;27.23;18.27;;;3.60;99.90;;;;;;4788193;29;20407;-80
2022/12/03 01:15:11;;;;;;;26.20;18.30;;;3.50;99.90;;;;;;4785919;29;20038;-80
2022/12/03 01:17:37;;;;;;;28.85;19.02;;;3.60;99.90;;;;;;4787004;29;20047;-80
2022/12/03 01:20:07;;;;;;;24.52;17.05;;;3.50;99.90;;;;;;4787129;29;20050;-80
2022/12/03 01:22:33;;;;;;;31.58;19.48;;;3.60;99.90;;;;;;4785628;29;20069;-80
2022/12/03 01:24:59;;;;;;;28.58;18.13;;;3.50;99.90;;;;;;4800751;29;20429;-80
2022/12/03 01:27:24;;;;;;;24.15;16.75;;;3.60;99.90;;;;;;4785062;29;20102;-80
2022/12/03 01:29:50;;;;;;;26.30;18.27;;;3.90;99.90;;;;;;4772821;29;20039;-80
2022/12/03 01:32:16;;;;;;;27.60;17.35;;;3.60;99.90;;;;;;4789401;29;20125;-80
2022/12/03 01:34:43;;;;;;;26.70;19.13;;;3.60;99.90;;;;;;4786087;29;21768;-80
2022/12/03 01:37:09;;;;;;;24.23;17.33;;;3.50;99.90;;;;;;4786800;29;20046;-81
2022/12/03 01:39:34;;;;;;;23.92;17.90;;;3.60;99.90;;;;;;4785909;29;20112;-81
2022/12/03 01:42:00;;;;;;;22.05;16.85;;;3.50;99.90;;;;;;4787779;29;20435;-81
2022/12/03 01:44:33;;;;;;;24.65;18.48;;;3.50;99.90;;;;;;4785433;29;20047;-80
2022/12/03 01:47:03;;;;;;;25.75;18.15;;;3.50;99.90;;;;;;4787263;29;20064;-80
2022/12/03 01:49:39;;;;;;;27.00;18.15;;;3.50;99.90;;;;;;4805439;29;20046;-81
2022/12/03 01:52:05;;;;;;;25.95;19.05;;;3.50;99.90;;;;;;4789087;29;20046;-80
2022/12/03 01:54:37;;;;;;;26.27;18.88;;;3.50;99.90;;;;;;4802664;29;20119;-80
2022/12/03 01:57:04;;;;;;;26.63;18.40;;;3.50;99.90;;;;;;4788578;29;20110;-80
2022/12/03 01:59:35;;;;;;;25.38;18.45;;;3.50;99.90;;;;;;4788986;29;20133;-80
2022/12/03 02:02:11;;;;;;;25.20;18.40;;;3.40;99.90;;;;;;4790186;29;20053;-81
2022/12/03 02:04:37;;;;;;;23.40;16.77;;;3.40;99.90;;;;;;4802152;29;20043;-80
2022/12/03 02:07:27;;;;;;;25.73;18.00;;;3.50;99.90;;;;;;4790504;29;20054;-80
2022/12/03 02:09:56;;;;;;;20.08;15.57;;;3.40;99.90;;;;;;4791779;29;20069;-80
2022/12/03 02:12:29;;;;;;;24.13;17.73;;;3.40;99.90;;;;;;4790195;29;20038;-80
2022/12/03 02:14:55;;;;;;;23.33;17.08;;;3.40;99.90;;;;;;4804367;29;20045;-80
2022/12/03 02:17:21;;;;;;;22.20;16.38;;;3.50;99.90;;;;;;4789507;29;20043;-80
2022/12/03 02:19:47;;;;;;;25.67;17.83;;;3.50;99.90;;;;;;4791953;29;20039;-80
2022/12/03 02:22:21;;;;;;;22.38;16.38;;;3.50;99.90;;;;;;4790011;29;20117;-81
2022/12/03 02:25:12;;;;;;;22.73;16.63;;;3.50;99.90;;;;;;4777147;29;20054;-81
2022/12/03 02:27:38;;;;;;;21.88;16.50;;;3.50;99.90;;;;;;4805029;29;20042;-81
2022/12/03 02:30:06;;;;;;;21.38;17.15;;;3.50;99.90;;;;;;4791769;29;20765;-80
2022/12/03 02:32:31;;;;;;;23.45;16.70;;;3.50;99.90;;;;;;4787568;29;20050;-80
2022/12/03 02:34:57;;;;;;;24.13;17.58;;;3.50;99.90;;;;;;4791572;29;20043;-80
2022/12/03 02:37:28;;;;;;;22.95;17.05;;;3.50;99.90;;;;;;4775808;29;20133;-80
2022/12/03 02:39:58;;;;;;;22.10;16.77;;;3.60;99.90;;;;;;4803457;29;20933;-80
2022/12/03 02:42:36;;;;;;;23.90;17.13;;;3.60;99.90;;;;;;4790260;29;20034;-80
2022/12/03 02:45:16;;;;;;;22.05;16.60;;;3.50;99.90;;;;;;4790773;29;20096;-80
2022/12/03 02:47:45;;;;;;;21.83;16.40;;;3.60;99.90;;;;;;4788757;29;20054;-81
2022/12/03 02:50:15;;;;;;;23.35;18.02;;;3.60;99.90;;;;;;4790016;29;20126;-80
2022/12/03 02:52:43;;;;;;;21.80;16.17;;;3.60;99.90;;;;;;4789219;29;21214;-80
2022/12/03 02:55:08;;;;;;;23.15;17.92;;;3.60;99.90;;;;;;4804338;29;20051;-80
2022/12/03 02:57:37;;;;;;;20.42;15.88;;;3.60;99.90;;;;;;4788161;29;20117;-81
2022/12/03 03:00:05;;;;;;;20.52;15.25;;;3.50;99.90;;;;;;4773331;29;20049;-80
2022/12/03 03:02:31;;;;;;;23.63;17.77;;;3.60;99.90;;;;;;4788977;29;20043;-80
2022/12/03 03:04:57;;;;;;;22.45;17.00;;;3.60;99.90;;;;;;4791883;29;20510;-80
2022/12/03 03:07:22;;;;;;;20.35;16.30;;;3.60;99.90;;;;;;4789902;29;20035;-80
2022/12/03 03:09:48;;;;;;;22.40;16.75;;;3.60;99.90;;;;;;4788733;29;20045;-81
2022/12/03 03:12:14;;;;;;;22.85;17.30;;;3.60;99.90;;;;;;4773398;29;20043;-79
2022/12/03 03:14:39;;;;;;;23.80;17.05;;;3.60;99.90;;;;;;4790399;29;20046;-80
2022/12/03 03:17:05;;;;;;;22.48;17.48;;;3.60;99.90;;;;;;4788942;29;20065;-81
2022/12/03 03:19:31;;;;;;;21.27;16.17;;;3.70;99.90;;;;;;4789628;29;20104;-80
2022/12/03 03:21:57;;;;;;;22.83;16.60;;;3.90;99.90;;;;;;4791359;29;20410;-81
2022/12/03 03:24:24;;;;;;;20.63;16.65;;;3.60;99.90;;;;;;4804754;29;20035;-80
2022/12/03 03:26:49;;;;;;;23.55;17.70;;;3.60;99.90;;;;;;4788282;29;20042;-80
2022/12/03 03:29:15;;;;;;;21.02;16.00;;;3.50;99.90;;;;;;4789954;29;20076;-80
2022/12/03 03:31:42;;;;;;;20.27;15.75;;;3.50;99.90;;;;;;4789497;29;20054;-81
2022/12/03 03:34:09;;;;;;;23.25;16.92;;;3.50;99.90;;;;;;4787640;29;20058;-80
2022/12/03 03:36:35;;;;;;;22.05;16.60;;;3.50;99.90;;;;;;4789018;29;20467;-81
2022/12/03 03:39:01;;;;;;;23.65;17.33;;;3.40;99.90;;;;;;4790211;29;20043;-80
2022/12/03 03:41:28;;;;;;;21.63;16.88;;;3.40;99.90;;;;;;4789873;29;20410;-79
2022/12/03 03:43:54;;;;;;;22.77;16.83;;;3.40;99.90;;;;;;4789153;29;20093;-80
2022/12/03 03:46:21;;;;;;;23.65;19.33;;;3.40;99.90;;;;;;4789089;29;20139;-79
2022/12/03 03:48:47;;;;;;;19.60;16.25;;;3.30;99.90;;;;;;4789797;29;20121;-80
2022/12/03 03:51:15;;;;;;;20.63;16.45;;;3.30;99.90;;;;;;4804253;29;20038;-80
2022/12/03 03:53:44;;;;;;;21.17;17.38;;;3.30;99.90;;;;;;4775092;29;20066;-80
2022/12/03 03:56:10;;;;;;;22.73;17.00;;;3.20;99.90;;;;;;4774833;29;20116;-80
2022/12/03 03:58:36;;;;;;;21.73;16.52;;;3.20;99.90;;;;;;4788574;29;20046;-80
2022/12/03 04:01:02;;;;;;;20.65;16.65;;;3.20;99.90;;;;;;4788757;29;20053;-80
2022/12/03 04:03:28;;;;;;;22.60;15.73;;;3.20;99.90;;;;;;4803890;29;20058;-80
2022/12/03 04:05:53;;;;;;;18.90;16.10;;;3.20;99.90;;;;;;4789687;29;20047;-80
2022/12/03 04:08:19;;;;;;;22.10;16.00;;;3.20;99.90;;;;;;4791368;29;20122;-80
2022/12/03 04:13:29;;;;;;;20.23;15.65;;;3.30;99.90;;;;;;4803116;29;20057;-80
2022/12/03 04:15:54;;;;;;;20.23;15.52;;;3.20;99.90;;;;;;4787583;29;20050;-80
2022/12/03 04:23:48;;;;;;;20.55;15.52;;;3.20;99.90;;;;;;4803249;29;20050;-82
2022/12/03 04:28:58;;;;;;;20.23;15.90;;;3.20;99.90;;;;;;4787762;29;20073;-81
2022/12/03 04:36:52;;;;;;;23.13;16.85;;;3.20;99.90;;;;;;4789776;29;20358;-81
2022/12/03 04:39:18;;;;;;;21.98;15.20;;;3.20;99.90;;;;;;4775202;29;20042;-81
2022/12/03 04:41:44;;;;;;;22.95;17.85;;;3.20;99.90;;;;;;4772929;29;20066;-81
2022/12/03 04:44:32;;;;;;;23.13;17.55;;;3.20;99.90;;;;;;4785388;29;20051;-81
2022/12/03 04:47:07;;;;;;;25.13;17.02;;;3.20;99.90;;;;;;4803464;29;20090;-82
2022/12/03 04:49:33;;;;;;;;;;;3.10;99.90;;;;;;4788445;29;20095;-81
2022/12/03 04:51:59;;;;;;;22.52;16.30;;;3.10;99.90;;;;;;4803589;29;20008;-81
2022/12/03 04:54:26;;;;;;;22.52;15.23;;;3.20;99.90;;;;;;4772729;29;20146;-81
2022/12/03 04:56:51;;;;;;;22.92;16.13;;;3.10;99.90;;;;;;4786373;29;20134;-82
2022/12/03 04:59:17;;;;;;;21.02;16.23;;;3.20;99.90;;;;;;4787234;29;20130;-80
2022/12/03 05:01:43;;;;;;;22.98;16.85;;;3.10;99.90;;;;;;4787187;29;20104;-81
2022/12/03 05:04:09;;;;;;;24.92;17.70;;;3.20;99.90;;;;;;4785693;29;20483;-81
2022/12/03 05:06:35;;;;;;;22.13;17.38;;;3.20;99.90;;;;;;4772971;29;20051;-81
2022/12/03 05:09:00;;;;;;;24.02;18.50;;;3.20;99.90;;;;;;4774301;29;20035;-81
2022/12/03 05:11:26;;;;;;;24.02;19.25;;;3.20;99.90;;;;;;4787001;29;20042;-82
2022/12/03 05:13:52;;;;;;;24.08;18.40;;;3.20;99.90;;;;;;4788394;29;20047;-82
2022/12/03 05:16:18;;;;;;;23.77;17.67;;;3.20;99.90;;;;;;4789836;29;20528;-81
2022/12/03 05:18:43;;;;;;;25.95;18.13;;;3.20;99.90;;;;;;4787000;29;20060;-81
2022/12/03 05:21:09;;;;;;;27.10;19.02;;;3.20;99.90;;;;;;4788701;29;20057;-81
2022/12/03 05:23:34;;;;;;;24.98;17.88;;;3.10;99.90;;;;;;4772284;29;20104;-81
2022/12/03 05:26:00;;;;;;;26.88;17.83;;;3.20;99.90;;;;;;4788906;29;20146;-81
2022/12/03 05:28:26;;;;;;;26.17;18.67;;;3.20;99.90;;;;;;4786282;29;20047;-81
2022/12/03 05:30:51;;;;;;;25.48;18.42;;;3.20;99.90;;;;;;4787948;29;20046;-81
2022/12/03 05:33:17;;;;;;;22.95;16.92;;;3.10;99.90;;;;;;4800763;29;20047;-81
2022/12/03 05:35:43;;;;;;;23.58;17.15;;;3.10;99.90;;;;;;4801885;29;20086;-81
2022/12/03 05:38:08;;;;;;;22.70;17.02;;;3.20;99.90;;;;;;4786867;29;20055;-81
2022/12/03 05:40:34;;;;;;;20.00;16.67;;;3.20;99.90;;;;;;4802850;29;20039;-81
2022/12/03 05:43:02;;;;;;;21.55;16.90;;;3.20;99.90;;;;;;4782461;29;20151;-81
2022/12/03 05:45:34;;;;;;;21.77;16.42;;;3.20;99.90;;;;;;4788136;29;20502;-81
2022/12/03 05:48:00;;;;;;;20.30;16.10;;;3.10;99.90;;;;;;4771003;29;20046;-81
2022/12/03 05:50:29;;;;;;;20.83;16.40;;;3.10;99.90;;;;;;4786665;29;20039;-81
2022/12/03 05:52:55;;;;;;;23.05;16.98;;;3.10;99.90;;;;;;4799859;29;20040;-81
2022/12/03 05:55:21;;;;;;;22.58;16.02;;;3.10;99.90;;;;;;4784158;29;20104;-82
2022/12/03 05:57:47;;;;;;;22.00;15.98;;;3.10;99.90;;;;;;4797984;29;20046;-81
2022/12/03 06:00:19;;;;;;;22.13;15.20;;;3.10;99.90;;;;;;4786399;29;20047;-81
2022/12/03 06:02:44;;;;;;;23.35;16.13;;;3.10;99.90;;;;;;4785888;29;20130;-81
2022/12/03 06:05:11;;;;;;;22.08;16.20;;;3.00;99.90;;;;;;4789035;29;20139;-81
2022/12/03 06:07:37;;;;;;;20.85;14.70;;;3.00;99.90;;;;;;4789179;29;20157;-81
2022/12/03 06:10:09;;;;;;;22.45;16.58;;;3.00;99.90;;;;;;4785773;29;20046;-81
2022/12/03 06:12:35;;;;;;;20.65;14.80;;;3.00;99.90;;;;;;4799164;29;20088;-82
2022/12/03 06:15:00;;;;;;;22.75;15.30;;;3.00;99.90;;;;;;4787322;29;20406;-81
2022/12/03 06:17:26;;;;;;;22.17;15.48;;;3.00;99.90;;;;;;4786066;29;20051;-81
2022/12/03 06:20:12;;;;;;;20.38;15.15;;;3.00;99.90;;;;;;4754773;29;20055;-81
2022/12/03 06:22:37;;;;;;;22.48;15.85;;;3.00;99.90;;;;;;4800727;29;20069;-81
2022/12/03 06:25:03;;;;;;;20.75;15.48;;;2.90;99.90;;;;;;4785412;29;20110;-81
2022/12/03 06:27:29;;;;;;;25.48;16.10;;;3.00;99.90;;;;;;4783801;29;20045;-81
2022/12/03 06:29:55;;;;;;;24.83;15.07;;;2.90;99.90;;;;;;4800247;29;20135;-81
2022/12/03 06:32:20;;;;;;;20.58;15.18;;;3.00;99.90;;;;;;4786836;29;20043;-81
2022/12/03 06:34:46;;;;;;;22.92;16.85;;;3.00;99.90;;;;;;4773004;29;20046;-81
2022/12/03 06:37:11;;;;;;;24.02;15.90;;;2.90;99.90;;;;;;4784958;29;20049;-81
2022/12/03 06:39:37;;;;;;;21.42;15.65;;;2.90;99.90;;;;;;4785401;29;20069;-80
2022/12/03 06:42:02;;;;;;;21.30;15.68;;;2.90;99.90;;;;;;4789055;29;20057;-80
2022/12/03 06:44:28;;;;;;;20.10;15.02;;;2.90;99.90;;;;;;4787233;29;20046;-81
2022/12/03 06:46:53;;;;;;;23.13;16.60;;;3.20;99.90;;;;;;4791835;29;20124;-83
2022/12/03 06:49:19;;;;;;;18.38;14.52;;;2.90;99.90;;;;;;4779850;29;20039;-81
2022/12/03 06:51:45;;;;;;;23.30;16.20;;;3.00;99.90;;;;;;4789942;29;20046;-82
2022/12/03 06:54:11;;;;;;;20.52;14.95;;;3.30;99.90;;;;;;4789409;29;20063;-81
2022/12/03 06:56:36;;;;;;;20.65;15.88;;;3.10;99.90;;;;;;4791416;29;20085;-81
2022/12/03 06:59:02;;;;;;;20.38;15.15;;;2.90;99.90;;;;;;4779756;29;20106;-82
2022/12/03 07:01:28;;;;;;;22.08;16.27;;;2.90;99.90;;;;;;4792684;29;20061;-83
2022/12/03 07:03:53;;;;;;;21.58;15.20;;;2.90;99.90;;;;;;4790249;29;20057;-82
2022/12/03 07:06:19;;;;;;;21.77;14.93;;;2.90;99.90;;;;;;4791478;29;20047;-83
2022/12/03 07:08:45;;;;;;;19.95;14.18;;;2.90;99.90;;;;;;4777994;29;20077;-83
2022/12/03 07:13:55;;;;;;;20.27;14.10;;;2.90;99.90;;;;;;4779797;29;20055;-84
2022/12/03 07:16:20;;;;;;;20.98;15.60;;;2.90;99.90;;;;;;4803839;29;20617;-84
2022/12/03 07:18:46;;;;;;;19.58;14.23;;;2.80;99.90;;;;;;4774858;29;20055;-83
2022/12/03 07:21:11;;;;;;;22.00;14.88;;;2.80;99.90;;;;;;4787992;29;20078;-84
2022/12/03 07:23:37;;;;;;;23.38;14.02;;;2.80;99.90;;;;;;4770597;29;20071;-87
2022/12/03 07:26:04;;;;;;;22.13;15.30;;;2.80;99.90;;;;;;4780237;29;20062;-86
2022/12/03 07:28:30;;;;;;;18.88;13.40;;;2.70;99.90;;;;;;4774617;29;20399;-85
2022/12/03 07:30:55;;;;;;;22.70;15.02;;;2.80;99.90;;;;;;4786388;29;20039;-84
2022/12/03 07:33:21;;;;;;;20.85;13.68;;;2.70;99.90;;;;;;4770800;29;20127;-83
2022/12/03 07:35:46;;;;;;;24.40;15.55;;;2.70;99.90;;;;;;4786604;29;20050;-84
2022/12/03 07:38:12;;;;;;;23.95;15.45;;;2.70;99.90;;;;;;4786639;29;20051;-84
2022/12/03 07:40:37;;;;;;;21.13;14.85;;;2.90;99.90;;;;;;4785339;29;20956;-83
2022/12/03 07:43:03;;;;;;;23.90;15.18;;;2.70;99.90;;;;;;4783028;29;20050;-84
2022/12/03 07:45:29;;;;;;;24.38;16.27;;;2.60;99.90;;;;;;4782279;29;20127;-82
2022/12/03 07:47:54;;;;;;;22.30;16.38;;;2.60;99.90;;;;;;4787065;29;20073;-82
2022/12/03 07:50:20;;;;;;;23.83;16.95;;;2.60;99.90;;;;;;4789098;29;20109;-83
2022/12/03 07:52:45;;;;;;;26.20;16.50;;;2.50;99.90;;;;;;4786780;29;20039;-81
2022/12/03 07:58:11;;;;;;;22.30;16.52;;;1.70;99.90;;;;;;4732379;30;20058;-82
2022/12/03 08:00:37;;;;;;;22.17;14.93;;;2.40;99.90;;;;;;4783668;29;20146;-82
2022/12/03 08:03:03;;;;;;;25.33;16.38;;;2.50;99.90;;;;;;4771041;29;20043;-81
2022/12/03 08:05:28;;;;;;;28.17;17.70;;;2.40;99.90;;;;;;4788053;29;20069;-83
2022/12/03 08:07:54;;;;;;;26.13;16.40;;;2.40;99.90;;;;;;4788547;29;20046;-82
2022/12/03 08:10:20;;;;;;;28.63;17.88;;;2.40;99.90;;;;;;4788059;29;20057;-82
2022/12/03 08:12:46;;;;;;;28.70;17.42;;;2.40;99.90;;;;;;4789704;29;20027;-83
2022/12/03 08:15:14;;;;;;;26.75;17.83;;;2.30;99.90;;;;;;4776380;29;20046;-85
2022/12/03 08:18:23;;;;;;;28.40;17.75;;;2.40;99.90;;;;;;4787274;29;21103;-87
2022/12/03 08:21:23;;;;;;;27.70;17.95;;;2.40;99.90;;;;;;4803239;29;20042;-88
2022/12/03 08:23:49;;;;;;;28.20;17.88;;;2.30;99.90;;;;;;4784170;29;20347;-82
2022/12/03 08:26:26;;;;;;;26.05;17.92;;;2.30;99.90;;;;;;4786824;29;20053;-86
2022/12/03 08:29:33;;;;;;;28.58;18.73;;;2.30;99.90;;;;;;4788639;29;20488;-87
2022/12/03 08:31:58;;;;;;;30.30;18.90;;;2.30;99.90;;;;;;4791067;29;20043;-87
2022/12/03 08:34:27;;;;;;;28.33;18.48;;;2.60;99.90;;;;;;4775768;29;20310;-88
2022/12/03 08:37:11;;;;;;;27.70;18.48;;;2.30;99.90;;;;;;4774143;29;20046;-87
2022/12/03 08:39:45;;;;;;;34.03;18.70;;;2.30;99.90;;;;;;4785018;29;20062;-83
2022/12/03 08:42:42;;;;;;;28.67;18.52;;;2.30;99.90;;;;;;4786632;29;21330;-83
2022/12/03 08:45:33;;;;;;;30.02;19.02;;;2.30;99.90;;;;;;4802297;29;20057;-83
2022/12/03 08:48:04;;;;;;;32.47;19.42;;;2.30;99.90;;;;;;4783660;29;20059;-81
2022/12/03 08:50:34;;;;;;;32.35;20.88;;;2.20;99.90;;;;;;4788675;29;20679;-82
2022/12/03 08:53:26;;;;;;;33.65;20.42;;;2.20;99.90;;;;;;4785793;29;20039;-83
2022/12/03 08:55:54;;;;;;;28.48;17.70;;;2.20;99.90;;;;;;4783207;29;20084;-82
2022/12/03 08:58:35;;;;;;;32.22;19.70;;;2.20;99.90;;;;;;4786759;29;20082;-83
2022/12/03 09:01:11;;;;;;;31.20;20.27;;;2.20;99.90;;;;;;4785618;29;20487;-85
2022/12/03 09:03:39;;;;;;;28.02;18.83;;;2.20;99.90;;;;;;4781862;29;20103;-85
2022/12/03 09:06:05;;;;;;;31.65;20.33;;;2.20;99.90;;;;;;4783294;29;20047;-85
2022/12/03 09:08:31;;;;;;;31.10;20.23;;;2.20;99.90;;;;;;4785461;29;20047;-85
2022/12/03 09:10:56;;;;;;;34.65;21.30;;;2.30;99.90;;;;;;4784152;29;20047;-84
2022/12/03 09:13:25;;;;;;;32.85;21.73;;;2.20;99.90;;;;;;4770422;29;20047;-87
2022/12/03 09:15:54;;;;;;;36.88;23.05;;;2.20;99.90;;;;;;4784428;29;20494;-88
2022/12/03 09:19:01;;;;;;;36.00;22.88;;;2.20;99.90;;;;;;4774509;29;20065;-89
2022/12/03 09:21:39;;;;;;;37.88;24.33;;;2.20;99.90;;;;;;4788397;29;20078;-87
2022/12/03 09:24:05;;;;;;;36.97;25.15;;;2.50;99.90;;;;;;4802088;29;20050;-87
2022/12/03 09:26:31;;;;;;;35.90;23.35;;;2.20;99.90;;;;;;4774608;29;20047;-87
2022/12/03 09:28:56;;;;;;;40.78;24.80;;;2.20;99.90;;;;;;4776845;29;20059;-84
2022/12/03 09:31:22;;;;;;;40.70;24.83;;;2.20;99.90;;;;;;4788456;29;20047;-81
2022/12/03 09:33:48;;;;;;;42.85;26.75;;;2.40;99.90;;;;;;4792211;29;20421;-83
2022/12/03 09:36:13;;;;;;;38.22;25.15;;;2.20;99.90;;;;;;4791689;29;20607;-83
2022/12/03 09:38:39;;;;;;;38.38;24.27;;;2.20;99.90;;;;;;4790540;29;20051;-82
2022/12/03 09:41:04;;;;;;;40.55;23.90;;;2.20;99.90;;;;;;4791484;29;20058;-83
2022/12/03 09:43:32;;;;;;;35.38;25.45;;;2.20;99.90;;;;;;4790362;29;20086;-82
2022/12/03 09:45:59;;;;;;;38.95;25.95;;;2.20;99.90;;;;;;4803465;29;20051;-82
2022/12/03 09:48:24;;;;;;;40.80;26.38;;;2.20;99.90;;;;;;4789755;29;20039;-83
2022/12/03 09:50:51;;;;;;;44.63;26.38;;;2.20;99.90;;;;;;4803531;29;20049;-83
2022/12/03 09:53:20;;;;;;;38.70;24.80;;;2.20;99.90;;;;;;4791088;29;20812;-82
2022/12/03 09:55:47;;;;;;;38.58;25.08;;;2.20;99.90;;;;;;4775915;29;20054;-83
2022/12/03 09:58:15;;;;;;;39.75;26.00;;;2.50;99.90;;;;;;4788455;29;20718;-82
2022/12/03 10:00:44;;;;;;;39.95;25.95;;;2.20;99.90;;;;;;4789300;29;20051;-82
2022/12/03 10:03:12;;;;;;;38.55;25.55;;;2.20;99.90;;;;;;4790686;29;20814;-82
2022/12/03 10:05:39;;;;;;;44.13;26.88;;;2.20;99.90;;;;;;4787173;29;20050;-82
2022/12/03 10:08:07;;;;;;;43.67;26.13;;;2.20;99.90;;;;;;4787937;29;20503;-82
2022/12/03 10:10:35;;;;;;;37.20;23.63;;;2.20;99.90;;;;;;4792429;29;20043;-82
2022/12/03 10:13:01;;;;;;;39.45;26.17;;;2.40;99.90;;;;;;4791952;29;20046;-81
2022/12/03 10:15:26;;;;;;;40.28;24.98;;;2.10;99.90;;;;;;4792109;29;20042;-82
2022/12/03 10:17:54;;;;;;;34.22;24.42;;;2.50;99.90;;;;;;4792840;29;20043;-82
2022/12/03 10:20:22;;;;;;;35.80;25.45;;;2.20;99.90;;;;;;4792383;29;20050;-82
2022/12/03 10:22:48;;;;;;;36.95;25.58;;;2.20;99.90;;;;;;4779570;29;20506;-83
2022/12/03 10:25:17;;;;;;;36.35;24.48;;;2.20;99.90;;;;;;4794113;29;20039;-82
2022/12/03 10:27:56;;;;;;;38.75;24.80;;;2.30;99.90;;;;;;4795339;29;20061;-82
2022/12/03 10:30:25;;;;;;;39.33;24.52;;;2.30;99.90;;;;;;4807581;29;20089;-82
2022/12/03 10:32:51;;;;;;;38.05;24.98;;;2.30;99.90;;;;;;4791953;29;20073;-82
2022/12/03 10:35:16;;;;;;;34.15;22.27;;;2.30;99.90;;;;;;4793440;29;20160;-82
2022/12/03 10:38:03;;;;;;;39.33;24.30;;;2.40;99.90;;;;;;4790808;29;20076;-84
2022/12/03 10:40:35;;;;;;;37.35;25.42;;;2.30;99.90;;;;;;4787746;29;20046;-85
2022/12/03 10:43:20;;;;;;;37.17;24.58;;;2.30;99.90;;;;;;4785793;29;20047;-83
2022/12/03 10:45:46;;;;;;;34.78;23.88;;;2.40;99.90;;;;;;4769547;29;20051;-83
2022/12/03 10:48:24;;;;;;;36.75;24.13;;;2.40;99.90;;;;;;4788953;29;20157;-82
2022/12/03 10:51:03;;;;;;;35.13;23.75;;;2.30;99.90;;;;;;4784235;29;20154;-83
2022/12/03 10:53:31;;;;;;;41.67;26.52;;;2.30;99.90;;;;;;4788431;29;20042;-84
2022/12/03 10:56:00;;;;;;;36.45;23.58;;;2.30;99.90;;;;;;4772515;29;20070;-84
2022/12/03 10:58:27;;;;;;;39.53;24.85;;;2.30;99.90;;;;;;4787513;29;20047;-83
2022/12/03 11:00:56;;;;;;;36.78;24.75;;;2.50;99.90;;;;;;4788879;29;20133;-85
2022/12/03 11:03:26;;;;;;;34.20;23.55;;;2.30;99.90;;;;;;4775754;29;20053;-85
2022/12/03 11:05:53;;;;;;;36.75;23.88;;;2.20;99.90;;;;;;4788687;29;20086;-84
2022/12/03 11:08:20;;;;;;;35.88;24.20;;;2.20;99.90;;;;;;4803916;29;20031;-84
2022/12/03 11:11:12;;;;;;;37.75;25.48;;;2.30;99.90;;;;;;4793241;29;20042;-84
2022/12/03 11:13:37;;;;;;;35.80;23.95;;;2.30;99.90;;;;;;4803717;29;20145;-83
2022/12/03 11:16:06;;;;;;;35.95;23.67;;;2.20;99.90;;;;;;4789975;29;20133;-83
2022/12/03 11:18:35;;;;;;;36.25;22.77;;;2.20;99.90;;;;;;4804176;29;20046;-83
2022/12/03 11:21:11;;;;;;;35.97;23.67;;;2.20;99.90;;;;;;4790762;29;20043;-84
2022/12/03 11:23:46;;;;;;;32.10;22.95;;;2.20;99.90;;;;;;4788823;29;20043;-83
2022/12/03 11:26:12;;;;;;;32.28;24.00;;;2.30;99.90;;;;;;4787966;29;20506;-84
2022/12/03 11:28:51;;;;;;;39.40;26.17;;;2.20;99.90;;;;;;4789428;29;20100;-83
2022/12/03 11:31:34;;;;;;;35.80;23.38;;;2.20;99.90;;;;;;4790611;29;20046;-85
2022/12/03 11:34:21;;;;;;;35.15;23.38;;;2.10;99.90;;;;;;4804250;29;20082;-84
2022/12/03 11:37:08;;;;;;;35.13;23.73;;;2.20;99.90;;;;;;4804473;29;20039;-84
2022/12/03 11:39:49;;;;;;;39.45;25.02;;;2.20;99.90;;;;;;4801536;29;20051;-84
2022/12/03 11:42:27;;;;;;;40.92;25.67;;;2.10;99.90;;;;;;4777575;29;20061;-84
2022/12/03 11:45:01;;;;;;;36.15;24.55;;;2.10;99.90;;;;;;4802517;29;20050;-84
2022/12/03 11:47:28;;;;;;;42.17;25.73;;;2.20;99.90;;;;;;4785303;29;20050;-82
2022/12/03 11:49:54;;;;;;;34.40;25.17;;;2.20;99.90;;;;;;4790034;29;20066;-81
2022/12/03 11:52:27;;;;;;;38.28;26.70;;;2.20;99.90;;;;;;4788831;29;20061;-83
2022/12/03 11:55:01;;;;;;;37.22;26.10;;;2.10;99.90;;;;;;4789483;29;20115;-84
2022/12/03 11:57:33;;;;;;;36.88;25.27;;;2.10;99.90;;;;;;4786859;29;20137;-81
2022/12/03 12:00:27;;;;;;;41.45;24.73;;;2.10;99.90;;;;;;4787094;29;20063;-81
2022/12/03 12:02:55;;;;;;;38.38;24.30;;;2.00;99.90;;;;;;4786279;29;20491;-83
2022/12/03 12:05:27;;;;;;;40.45;26.00;;;2.00;99.90;;;;;;4799434;29;20050;-84
2022/12/03 12:07:54;;;;;;;38.55;25.95;;;2.00;99.90;;;;;;4784241;29;20047;-82
2022/12/03 12:10:39;;;;;;;38.90;25.23;;;2.00;99.90;;;;;;4786869;29;20038;-86
2022/12/03 12:13:05;;;;;;;36.30;25.17;;;2.00;99.90;;;;;;4786335;29;20046;-82
2022/12/03 12:15:43;;;;;;;39.25;24.80;;;2.00;99.90;;;;;;4769495;29;20741;-82
2022/12/03 12:18:34;;;;;;;38.00;25.80;;;2.10;99.90;;;;;;4783620;29;20421;-83
2022/12/03 12:21:40;;;;;;;33.40;23.10;;;2.10;99.90;;;;;;4799700;29;20046;-80
2022/12/03 12:24:45;;;;;;;35.60;24.63;;;2.10;99.90;;;;;;4784969;29;20047;-80
2022/12/03 12:27:14;;;;;;;37.90;25.52;;;2.10;99.90;;;;;;4780594;29;20120;-83
2022/12/03 12:29:41;;;;;;;41.35;26.55;;;2.20;99.90;;;;;;4790654;29;20565;-82
2022/12/03 12:32:16;;;;;;;39.45;25.55;;;2.10;99.90;;;;;;4786831;29;20063;-81
2022/12/03 12:34:52;;;;;;;37.05;25.25;;;2.40;99.90;;;;;;4790684;29;20109;-81
2022/12/03 12:37:32;;;;;;;40.55;26.75;;;2.10;99.90;;;;;;4792255;29;20101;-84
2022/12/03 12:39:58;;;;;;;40.58;26.42;;;2.10;99.90;;;;;;4787585;29;20051;-82
2022/12/03 12:42:41;;;;;;;39.45;26.33;;;2.30;99.90;;;;;;4773036;29;20055;-84
2022/12/03 12:45:18;;;;;;;36.22;24.67;;;2.10;99.90;;;;;;4782266;29;20046;-83
2022/12/03 12:47:48;;;;;;;37.90;25.42;;;2.10;99.90;;;;;;4799139;29;20430;-85
2022/12/03 12:50:16;;;;;;;39.88;26.92;;;2.10;99.90;;;;;;4786530;29;20042;-84
2022/12/03 12:53:10;;;;;;;42.25;27.25;;;2.10;99.90;;;;;;4784077;29;21204;-84
2022/12/03 12:55:39;;;;;;;38.65;27.35;;;2.00;99.90;;;;;;4783693;29;20450;-84
2022/12/03 12:58:12;;;;;;;38.78;27.40;;;2.20;99.90;;;;;;4799326;29;20058;-84
2022/12/03 13:00:37;;;;;;;39.88;24.65;;;2.20;99.90;;;;;;4784034;29;20050;-84
2022/12/03 13:03:05;;;;;;;39.53;25.88;;;2.10;99.90;;;;;;4785390;29;20503;-83
2022/12/03 13:05:39;;;;;;;38.78;26.15;;;2.10;99.90;;;;;;4783577;29;20054;-82
2022/12/03 13:08:21;;;;;;;37.10;24.40;;;2.20;99.90;;;;;;4785603;29;20061;-84
2022/12/03 13:10:47;;;;;;;37.63;23.08;;;2.10;99.90;;;;;;4787269;29;20039;-84
2022/12/03 13:13:40;;;;;;;35.55;23.70;;;2.20;99.90;;;;;;4786678;29;20549;-84